sensor_id;sensor_type;location;lat;lon;timestamp;temperature;humidity
51655;DHT22;37732;53.106;7.030;2023-06-14T00:02:22;14.60;96.00
51655;DHT22;37732;53.106;7.030;2023-06-14T00:04:50;14.60;96.50
51655;DHT22;37732;53.106;7.030;2023-06-14T00:07:20;14.60;96.90
51655;DHT22;37732;53.106;7.030;2023-06-14T00:09:53;14.50;97.60
51655;DHT22;37732;53.106;7.030;2023-06-14T00:12:20;14.50;97.80
51655;DHT22;37732;53.106;7.030;2023-06-14T00:14:46;14.50;98.80
51655;DHT22;37732;53.106;7.030;2023-06-14T00:17:12;14.50;99.10
51655;DHT22;37732;53.106;7.030;2023-06-14T00:19:38;14.50;99.30
51655;DHT22;37732;53.106;7.030;2023-06-14T00:22:07;14.40;99.80
51655;DHT22;37732;53.106;7.030;2023-06-14T00:24:35;14.50;99.90
51655;DHT22;37732;53.106;7.030;2023-06-14T00:27:02;14.40;99.90
51655;DHT22;37732;53.106;7.030;2023-06-14T00:29:29;14.40;99.90
51655;DHT22;37732;53.106;7.030;2023-06-14T00:31:55;14.40;99.90
51655;DHT22;37732;53.106;7.030;2023-06-14T00:34:21;14.30;99.90
51655;DHT22;37732;53.106;7.030;2023-06-14T00:36:48;14.30;99.90
51655;DHT22;37732;53.106;7.030;2023-06-14T00:39:15;14.30;99.90
51655;DHT22;37732;53.106;7.030;2023-06-14T00:41:42;14.20;99.90
51655;DHT22;37732;53.106;7.030;2023-06-14T00:44:08;14.20;99.90
51655;DHT22;37732;53.106;7.030;2023-06-14T00:46:35;14.20;99.90
51655;DHT22;37732;53.106;7.030;2023-06-14T00:49:02;14.20;99.90
51655;DHT22;37732;53.106;7.030;2023-06-14T00:51:28;14.10;99.90
51655;DHT22;37732;53.106;7.030;2023-06-14T00:53:56;14.10;99.90
51655;DHT22;37732;53.106;7.030;2023-06-14T00:56:23;14.00;99.90
51655;DHT22;37732;53.106;7.030;2023-06-14T00:58:53;14.00;99.90
51655;DHT22;37732;53.106;7.030;2023-06-14T01:16:40;13.90;99.90
51655;DHT22;37732;53.106;7.030;2023-06-14T01:23:18;13.80;99.90
51655;DHT22;37732;53.106;7.030;2023-06-14T01:26:28;13.80;99.90
51655;DHT22;37732;53.106;7.030;2023-06-14T01:33:44;13.70;99.90
51655;DHT22;37732;53.106;7.030;2023-06-14T01:37:04;13.60;99.90
51655;DHT22;37732;53.106;7.030;2023-06-14T01:40:18;13.60;99.90
51655;DHT22;37732;53.106;7.030;2023-06-14T01:43:27;13.50;99.90
51655;DHT22;37732;53.106;7.030;2023-06-14T01:46:25;13.50;99.90
51655;DHT22;37732;53.106;7.030;2023-06-14T01:49:35;13.50;99.90
51655;DHT22;37732;53.106;7.030;2023-06-14T01:53:07;13.40;99.90
51655;DHT22;37732;53.106;7.030;2023-06-14T01:59:37;13.30;99.90
51655;DHT22;37732;53.106;7.030;2023-06-14T02:02:54;13.30;99.90
51655;DHT22;37732;53.106;7.030;2023-06-14T02:09:18;13.20;99.90
51655;DHT22;37732;53.106;7.030;2023-06-14T02:12:38;13.10;99.90
51655;DHT22;37732;53.106;7.030;2023-06-14T02:23:11;13.00;99.90
51655;DHT22;37732;53.106;7.030;2023-06-14T02:28:54;12.90;99.90
51655;DHT22;37732;53.106;7.030;2023-06-14T02:31:20;12.90;99.90
51655;DHT22;37732;53.106;7.030;2023-06-14T02:33:46;12.90;99.90
51655;DHT22;37732;53.106;7.030;2023-06-14T02:36:13;12.90;99.90
51655;DHT22;37732;53.106;7.030;2023-06-14T02:38:39;12.90;99.90
51655;DHT22;37732;53.106;7.030;2023-06-14T02:41:06;12.90;99.90
51655;DHT22;37732;53.106;7.030;2023-06-14T02:43:33;12.90;99.90
51655;DHT22;37732;53.106;7.030;2023-06-14T02:46:01;12.90;99.90
51655;DHT22;37732;53.106;7.030;2023-06-14T02:48:30;12.90;99.90
51655;DHT22;37732;53.106;7.030;2023-06-14T02:50:58;12.80;99.90
51655;DHT22;37732;53.106;7.030;2023-06-14T02:53:27;12.90;99.90
51655;DHT22;37732;53.106;7.030;2023-06-14T02:55:54;12.90;99.90
51655;DHT22;37732;53.106;7.030;2023-06-14T02:58:21;12.90;99.90
51655;DHT22;37732;53.106;7.030;2023-06-14T03:00:50;12.90;99.90
51655;DHT22;37732;53.106;7.030;2023-06-14T03:03:22;12.90;99.90
51655;DHT22;37732;53.106;7.030;2023-06-14T03:05:51;12.90;99.90
51655;DHT22;37732;53.106;7.030;2023-06-14T03:08:18;12.90;99.90
51655;DHT22;37732;53.106;7.030;2023-06-14T03:10:48;13.00;99.90
51655;DHT22;37732;53.106;7.030;2023-06-14T03:13:15;13.00;99.90
51655;DHT22;37732;53.106;7.030;2023-06-14T03:15:46;13.00;99.90
51655;DHT22;37732;53.106;7.030;2023-06-14T03:18:15;13.00;99.90
51655;DHT22;37732;53.106;7.030;2023-06-14T03:20:43;13.00;99.90
51655;DHT22;37732;53.106;7.030;2023-06-14T03:23:12;13.00;99.90
51655;DHT22;37732;53.106;7.030;2023-06-14T03:25:39;13.00;99.90
51655;DHT22;37732;53.106;7.030;2023-06-14T03:28:08;13.00;99.90
51655;DHT22;37732;53.106;7.030;2023-06-14T03:30:34;13.00;99.90
51655;DHT22;37732;53.106;7.030;2023-06-14T03:33:01;13.00;99.90
51655;DHT22;37732;53.106;7.030;2023-06-14T03:35:28;13.10;99.90
51655;DHT22;37732;53.106;7.030;2023-06-14T03:37:55;13.10;99.90
51655;DHT22;37732;53.106;7.030;2023-06-14T03:40:23;13.10;99.90
51655;DHT22;37732;53.106;7.030;2023-06-14T03:42:56;13.10;99.90
51655;DHT22;37732;53.106;7.030;2023-06-14T03:45:25;13.10;99.90
51655;DHT22;37732;53.106;7.030;2023-06-14T03:47:54;13.10;99.90
51655;DHT22;37732;53.106;7.030;2023-06-14T03:50:22;13.10;99.90
51655;DHT22;37732;53.106;7.030;2023-06-14T03:52:50;13.10;99.90
51655;DHT22;37732;53.106;7.030;2023-06-14T03:55:17;13.10;99.90
51655;DHT22;37732;53.106;7.030;2023-06-14T03:57:48;13.10;99.90
51655;DHT22;37732;53.106;7.030;2023-06-14T04:00:17;13.10;99.90
51655;DHT22;37732;53.106;7.030;2023-06-14T04:02:45;13.20;99.90
51655;DHT22;37732;53.106;7.030;2023-06-14T04:05:13;13.10;99.90
51655;DHT22;37732;53.106;7.030;2023-06-14T04:07:41;13.20;99.90
51655;DHT22;37732;53.106;7.030;2023-06-14T04:10:13;13.20;99.90
51655;DHT22;37732;53.106;7.030;2023-06-14T04:12:43;13.20;99.90
51655;DHT22;37732;53.106;7.030;2023-06-14T04:15:10;13.20;99.90
51655;DHT22;37732;53.106;7.030;2023-06-14T04:17:37;13.30;99.90
51655;DHT22;37732;53.106;7.030;2023-06-14T04:20:06;13.30;99.90
51655;DHT22;37732;53.106;7.030;2023-06-14T04:22:35;13.30;99.90
51655;DHT22;37732;53.106;7.030;2023-06-14T04:25:03;13.30;99.90
51655;DHT22;37732;53.106;7.030;2023-06-14T04:27:32;13.40;99.90
51655;DHT22;37732;53.106;7.030;2023-06-14T04:30:02;13.40;99.90
51655;DHT22;37732;53.106;7.030;2023-06-14T04:32:29;13.50;99.90
51655;DHT22;37732;53.106;7.030;2023-06-14T04:35:00;13.50;99.90
51655;DHT22;37732;53.106;7.030;2023-06-14T04:37:31;13.50;99.90
51655;DHT22;37732;53.106;7.030;2023-06-14T04:39:59;13.60;99.90
51655;DHT22;37732;53.106;7.030;2023-06-14T04:42:25;13.60;99.90
51655;DHT22;37732;53.106;7.030;2023-06-14T04:45:01;13.70;99.90
51655;DHT22;37732;53.106;7.030;2023-06-14T04:47:31;13.70;99.90
51655;DHT22;37732;53.106;7.030;2023-06-14T04:50:01;13.80;99.90
51655;DHT22;37732;53.106;7.030;2023-06-14T04:52:28;13.90;99.90
51655;DHT22;37732;53.106;7.030;2023-06-14T04:55:22;13.90;99.90
51655;DHT22;37732;53.106;7.030;2023-06-14T04:57:48;14.00;99.90
51655;DHT22;37732;53.106;7.030;2023-06-14T05:00:14;14.00;99.90
51655;DHT22;37732;53.106;7.030;2023-06-14T05:02:40;14.20;99.90
51655;DHT22;37732;53.106;7.030;2023-06-14T05:05:06;14.20;99.90
51655;DHT22;37732;53.106;7.030;2023-06-14T05:07:33;14.30;99.90
51655;DHT22;37732;53.106;7.030;2023-06-14T05:09:59;14.30;99.90
51655;DHT22;37732;53.106;7.030;2023-06-14T05:12:25;14.40;99.90
51655;DHT22;37732;53.106;7.030;2023-06-14T05:14:51;14.40;99.90
51655;DHT22;37732;53.106;7.030;2023-06-14T05:17:17;14.50;99.90
51655;DHT22;37732;53.106;7.030;2023-06-14T05:19:43;14.60;99.90
51655;DHT22;37732;53.106;7.030;2023-06-14T05:22:08;14.70;99.90
51655;DHT22;37732;53.106;7.030;2023-06-14T05:24:34;14.80;99.90
51655;DHT22;37732;53.106;7.030;2023-06-14T05:27:00;15.00;99.90
51655;DHT22;37732;53.106;7.030;2023-06-14T05:29:26;15.10;99.90
51655;DHT22;37732;53.106;7.030;2023-06-14T05:31:53;15.20;99.90
51655;DHT22;37732;53.106;7.030;2023-06-14T05:34:18;15.40;99.90
51655;DHT22;37732;53.106;7.030;2023-06-14T05:36:44;15.50;99.90
51655;DHT22;37732;53.106;7.030;2023-06-14T05:39:10;15.70;99.90
51655;DHT22;37732;53.106;7.030;2023-06-14T05:41:36;15.80;99.90
51655;DHT22;37732;53.106;7.030;2023-06-14T05:44:01;16.00;99.90
51655;DHT22;37732;53.106;7.030;2023-06-14T05:46:27;16.10;99.90
51655;DHT22;37732;53.106;7.030;2023-06-14T05:48:54;16.20;99.90
51655;DHT22;37732;53.106;7.030;2023-06-14T05:51:20;16.40;99.90
51655;DHT22;37732;53.106;7.030;2023-06-14T05:53:48;16.60;99.90
51655;DHT22;37732;53.106;7.030;2023-06-14T05:56:14;16.70;99.90
51655;DHT22;37732;53.106;7.030;2023-06-14T05:58:40;16.90;99.90
51655;DHT22;37732;53.106;7.030;2023-06-14T06:01:06;17.20;99.90
51655;DHT22;37732;53.106;7.030;2023-06-14T06:03:32;17.40;99.90
51655;DHT22;37732;53.106;7.030;2023-06-14T06:05:59;17.60;99.90
51655;DHT22;37732;53.106;7.030;2023-06-14T06:08:25;17.80;99.90
51655;DHT22;37732;53.106;7.030;2023-06-14T06:10:51;18.10;99.90
51655;DHT22;37732;53.106;7.030;2023-06-14T06:13:17;18.30;99.90
51655;DHT22;37732;53.106;7.030;2023-06-14T06:15:42;18.50;99.90
51655;DHT22;37732;53.106;7.030;2023-06-14T06:18:08;18.70;99.90
51655;DHT22;37732;53.106;7.030;2023-06-14T06:20:33;18.90;99.90
51655;DHT22;37732;53.106;7.030;2023-06-14T06:22:59;19.20;99.90
51655;DHT22;37732;53.106;7.030;2023-06-14T06:25:26;19.40;99.90
51655;DHT22;37732;53.106;7.030;2023-06-14T06:27:57;19.60;99.90
51655;DHT22;37732;53.106;7.030;2023-06-14T06:30:23;19.80;99.90
51655;DHT22;37732;53.106;7.030;2023-06-14T06:32:50;20.00;99.90
51655;DHT22;37732;53.106;7.030;2023-06-14T06:35:16;20.20;99.90
51655;DHT22;37732;53.106;7.030;2023-06-14T06:37:42;20.40;99.90
51655;DHT22;37732;53.106;7.030;2023-06-14T06:40:08;20.60;99.90
51655;DHT22;37732;53.106;7.030;2023-06-14T06:42:35;20.80;99.60
51655;DHT22;37732;53.106;7.030;2023-06-14T06:45:01;21.00;99.00
51655;DHT22;37732;53.106;7.030;2023-06-14T06:47:27;21.20;98.30
51655;DHT22;37732;53.106;7.030;2023-06-14T06:49:53;21.30;97.60
51655;DHT22;37732;53.106;7.030;2023-06-14T06:52:18;21.50;97.10
51655;DHT22;37732;53.106;7.030;2023-06-14T06:54:44;21.50;96.30
51655;DHT22;37732;53.106;7.030;2023-06-14T06:57:10;21.60;95.90
51655;DHT22;37732;53.106;7.030;2023-06-14T06:59:36;21.70;95.30
51655;DHT22;37732;53.106;7.030;2023-06-14T07:02:03;21.80;94.90
51655;DHT22;37732;53.106;7.030;2023-06-14T07:04:28;21.90;94.30
51655;DHT22;37732;53.106;7.030;2023-06-14T07:06:54;22.00;93.60
51655;DHT22;37732;53.106;7.030;2023-06-14T07:09:20;22.10;93.20
51655;DHT22;37732;53.106;7.030;2023-06-14T07:11:47;22.20;93.20
51655;DHT22;37732;53.106;7.030;2023-06-14T07:14:13;22.30;92.50
51655;DHT22;37732;53.106;7.030;2023-06-14T07:16:38;22.40;92.00
51655;DHT22;37732;53.106;7.030;2023-06-14T07:19:04;22.50;91.30
51655;DHT22;37732;53.106;7.030;2023-06-14T07:21:31;22.50;90.70
51655;DHT22;37732;53.106;7.030;2023-06-14T07:23:56;22.60;90.50
51655;DHT22;37732;53.106;7.030;2023-06-14T07:26:22;22.60;90.20
51655;DHT22;37732;53.106;7.030;2023-06-14T07:28:49;22.80;90.30
51655;DHT22;37732;53.106;7.030;2023-06-14T07:31:17;22.90;90.00
51655;DHT22;37732;53.106;7.030;2023-06-14T07:33:45;23.10;88.30
51655;DHT22;37732;53.106;7.030;2023-06-14T07:36:10;23.20;86.70
51655;DHT22;37732;53.106;7.030;2023-06-14T07:38:36;23.30;84.90
51655;DHT22;37732;53.106;7.030;2023-06-14T07:41:02;23.30;83.80
51655;DHT22;37732;53.106;7.030;2023-06-14T07:43:28;23.40;82.50
51655;DHT22;37732;53.106;7.030;2023-06-14T07:45:54;23.50;81.70
51655;DHT22;37732;53.106;7.030;2023-06-14T07:48:20;23.60;80.90
51655;DHT22;37732;53.106;7.030;2023-06-14T07:50:46;23.70;80.40
51655;DHT22;37732;53.106;7.030;2023-06-14T07:53:12;23.80;78.60
51655;DHT22;37732;53.106;7.030;2023-06-14T07:55:37;23.80;77.20
51655;DHT22;37732;53.106;7.030;2023-06-14T07:58:04;23.80;76.30
51655;DHT22;37732;53.106;7.030;2023-06-14T08:00:30;23.80;75.50
51655;DHT22;37732;53.106;7.030;2023-06-14T08:02:56;23.80;75.10
51655;DHT22;37732;53.106;7.030;2023-06-14T08:05:25;24.00;75.90
51655;DHT22;37732;53.106;7.030;2023-06-14T08:07:52;24.20;75.70
51655;DHT22;37732;53.106;7.030;2023-06-14T08:10:17;24.20;74.00
51655;DHT22;37732;53.106;7.030;2023-06-14T08:12:43;24.30;73.30
51655;DHT22;37732;53.106;7.030;2023-06-14T08:15:10;24.40;72.10
51655;DHT22;37732;53.106;7.030;2023-06-14T08:17:35;24.40;71.10
51655;DHT22;37732;53.106;7.030;2023-06-14T08:20:02;24.50;70.20
51655;DHT22;37732;53.106;7.030;2023-06-14T08:22:30;24.40;69.00
51655;DHT22;37732;53.106;7.030;2023-06-14T08:24:59;24.50;69.60
51655;DHT22;37732;53.106;7.030;2023-06-14T08:27:25;24.50;69.60
51655;DHT22;37732;53.106;7.030;2023-06-14T08:29:51;24.60;69.30
51655;DHT22;37732;53.106;7.030;2023-06-14T08:32:16;24.70;68.70
51655;DHT22;37732;53.106;7.030;2023-06-14T08:34:42;24.70;67.90
51655;DHT22;37732;53.106;7.030;2023-06-14T08:37:08;24.70;67.50
51655;DHT22;37732;53.106;7.030;2023-06-14T08:39:33;24.70;67.20
51655;DHT22;37732;53.106;7.030;2023-06-14T08:42:01;24.70;66.90
51655;DHT22;37732;53.106;7.030;2023-06-14T08:44:29;24.80;66.40
51655;DHT22;37732;53.106;7.030;2023-06-14T08:46:56;25.00;66.80
51655;DHT22;37732;53.106;7.030;2023-06-14T08:49:23;25.10;66.00
51655;DHT22;37732;53.106;7.030;2023-06-14T08:51:59;25.20;65.70
51655;DHT22;37732;53.106;7.030;2023-06-14T08:54:29;25.30;65.70
51655;DHT22;37732;53.106;7.030;2023-06-14T08:57:00;25.50;65.00
51655;DHT22;37732;53.106;7.030;2023-06-14T08:59:28;25.50;65.10
51655;DHT22;37732;53.106;7.030;2023-06-14T09:01:56;25.70;65.30
51655;DHT22;37732;53.106;7.030;2023-06-14T09:04:23;25.80;65.00
51655;DHT22;37732;53.106;7.030;2023-06-14T09:06:50;26.00;64.70
51655;DHT22;37732;53.106;7.030;2023-06-14T09:09:22;26.10;63.90
51655;DHT22;37732;53.106;7.030;2023-06-14T09:11:50;26.10;63.20
51655;DHT22;37732;53.106;7.030;2023-06-14T09:14:17;26.20;62.70
51655;DHT22;37732;53.106;7.030;2023-06-14T09:16:43;26.20;62.20
51655;DHT22;37732;53.106;7.030;2023-06-14T09:19:14;26.30;61.50
51655;DHT22;37732;53.106;7.030;2023-06-14T09:21:47;26.40;60.40
51655;DHT22;37732;53.106;7.030;2023-06-14T09:24:14;26.40;60.50
51655;DHT22;37732;53.106;7.030;2023-06-14T09:26:40;26.40;60.20
51655;DHT22;37732;53.106;7.030;2023-06-14T09:29:06;26.60;60.20
51655;DHT22;37732;53.106;7.030;2023-06-14T09:31:32;26.60;59.70
51655;DHT22;37732;53.106;7.030;2023-06-14T09:33:58;26.60;59.20
51655;DHT22;37732;53.106;7.030;2023-06-14T09:36:27;26.60;58.30
51655;DHT22;37732;53.106;7.030;2023-06-14T09:39:16;26.50;58.00
51655;DHT22;37732;53.106;7.030;2023-06-14T09:41:42;26.60;56.90
51655;DHT22;37732;53.106;7.030;2023-06-14T09:44:09;26.60;58.20
51655;DHT22;37732;53.106;7.030;2023-06-14T09:46:36;26.80;58.60
51655;DHT22;37732;53.106;7.030;2023-06-14T09:49:03;27.00;58.60
51655;DHT22;37732;53.106;7.030;2023-06-14T09:51:30;27.10;57.50
51655;DHT22;37732;53.106;7.030;2023-06-14T09:54:02;27.20;57.10
51655;DHT22;37732;53.106;7.030;2023-06-14T09:58:59;27.30;55.00
51655;DHT22;37732;53.106;7.030;2023-06-14T10:01:30;27.30;54.50
51655;DHT22;37732;53.106;7.030;2023-06-14T10:04:04;27.30;53.40
51655;DHT22;37732;53.106;7.030;2023-06-14T10:06:31;27.30;53.00
51655;DHT22;37732;53.106;7.030;2023-06-14T10:08:59;27.40;53.70
51655;DHT22;37732;53.106;7.030;2023-06-14T10:11:26;27.50;53.00
51655;DHT22;37732;53.106;7.030;2023-06-14T10:13:55;27.60;52.70
51655;DHT22;37732;53.106;7.030;2023-06-14T10:16:30;27.60;51.90
51655;DHT22;37732;53.106;7.030;2023-06-14T10:24:41;27.60;50.00
51655;DHT22;37732;53.106;7.030;2023-06-14T10:27:07;27.60;49.80
51655;DHT22;37732;53.106;7.030;2023-06-14T10:32:24;27.60;49.40
51655;DHT22;37732;53.106;7.030;2023-06-14T10:35:06;27.50;49.40
51655;DHT22;37732;53.106;7.030;2023-06-14T10:37:33;27.40;49.50
51655;DHT22;37732;53.106;7.030;2023-06-14T10:39:58;27.40;49.70
51655;DHT22;37732;53.106;7.030;2023-06-14T10:42:31;27.40;49.60
51655;DHT22;37732;53.106;7.030;2023-06-14T10:44:57;27.40;49.30
51655;DHT22;37732;53.106;7.030;2023-06-14T10:47:34;27.40;49.80
51655;DHT22;37732;53.106;7.030;2023-06-14T10:50:07;27.40;49.90
51655;DHT22;37732;53.106;7.030;2023-06-14T10:52:37;27.40;48.70
51655;DHT22;37732;53.106;7.030;2023-06-14T10:55:06;27.40;48.60
51655;DHT22;37732;53.106;7.030;2023-06-14T10:57:48;27.30;48.10
51655;DHT22;37732;53.106;7.030;2023-06-14T11:00:21;27.40;48.90
51655;DHT22;37732;53.106;7.030;2023-06-14T11:08:47;27.80;48.90
51655;DHT22;37732;53.106;7.030;2023-06-14T11:11:17;27.80;48.40
51655;DHT22;37732;53.106;7.030;2023-06-14T11:13:45;27.70;48.50
51655;DHT22;37732;53.106;7.030;2023-06-14T11:16:12;27.90;48.20
51655;DHT22;37732;53.106;7.030;2023-06-14T11:18:38;27.90;48.30
51655;DHT22;37732;53.106;7.030;2023-06-14T11:21:04;27.90;48.90
51655;DHT22;37732;53.106;7.030;2023-06-14T11:23:30;27.90;48.50
51655;DHT22;37732;53.106;7.030;2023-06-14T11:25:55;27.80;48.10
51655;DHT22;37732;53.106;7.030;2023-06-14T11:28:21;27.80;47.70
51655;DHT22;37732;53.106;7.030;2023-06-14T11:30:49;27.80;48.10
51655;DHT22;37732;53.106;7.030;2023-06-14T11:33:18;27.90;48.00
51655;DHT22;37732;53.106;7.030;2023-06-14T11:35:44;27.90;48.10
51655;DHT22;37732;53.106;7.030;2023-06-14T11:38:11;27.90;48.20
51655;DHT22;37732;53.106;7.030;2023-06-14T11:40:38;27.90;47.90
51655;DHT22;37732;53.106;7.030;2023-06-14T11:43:04;28.10;48.40
51655;DHT22;37732;53.106;7.030;2023-06-14T11:45:30;28.20;48.20
51655;DHT22;37732;53.106;7.030;2023-06-14T11:47:57;28.40;48.00
51655;DHT22;37732;53.106;7.030;2023-06-14T11:50:23;28.60;48.30
51655;DHT22;37732;53.106;7.030;2023-06-14T11:52:57;28.70;47.40
51655;DHT22;37732;53.106;7.030;2023-06-14T11:55:25;28.80;46.80
51655;DHT22;37732;53.106;7.030;2023-06-14T11:57:53;28.80;46.80
51655;DHT22;37732;53.106;7.030;2023-06-14T12:00:19;28.60;46.10
51655;DHT22;37732;53.106;7.030;2023-06-14T12:02:57;28.50;46.40
51655;DHT22;37732;53.106;7.030;2023-06-14T12:05:22;28.60;47.40
51655;DHT22;37732;53.106;7.030;2023-06-14T12:07:49;28.50;46.80
51655;DHT22;37732;53.106;7.030;2023-06-14T12:10:16;28.70;47.10
51655;DHT22;37732;53.106;7.030;2023-06-14T12:12:42;28.70;46.80
51655;DHT22;37732;53.106;7.030;2023-06-14T12:15:09;28.70;46.80
51655;DHT22;37732;53.106;7.030;2023-06-14T12:17:37;28.80;46.80
51655;DHT22;37732;53.106;7.030;2023-06-14T12:20:14;28.90;46.90
51655;DHT22;37732;53.106;7.030;2023-06-14T12:22:54;29.00;47.20
51655;DHT22;37732;53.106;7.030;2023-06-14T12:25:34;29.20;46.80
51655;DHT22;37732;53.106;7.030;2023-06-14T12:28:08;29.40;46.90
51655;DHT22;37732;53.106;7.030;2023-06-14T12:30:34;29.60;45.40
51655;DHT22;37732;53.106;7.030;2023-06-14T12:32:59;29.50;46.20
51655;DHT22;37732;53.106;7.030;2023-06-14T12:35:26;29.30;45.40
51655;DHT22;37732;53.106;7.030;2023-06-14T12:37:51;29.00;45.50
51655;DHT22;37732;53.106;7.030;2023-06-14T12:40:17;29.10;46.00
51655;DHT22;37732;53.106;7.030;2023-06-14T12:42:44;29.20;46.00
51655;DHT22;37732;53.106;7.030;2023-06-14T12:45:12;29.30;46.30
51655;DHT22;37732;53.106;7.030;2023-06-14T12:47:38;29.50;46.60
51655;DHT22;37732;53.106;7.030;2023-06-14T12:50:05;29.50;46.40
51655;DHT22;37732;53.106;7.030;2023-06-14T12:52:31;29.40;46.70
51655;DHT22;37732;53.106;7.030;2023-06-14T12:54:56;29.50;46.50
51655;DHT22;37732;53.106;7.030;2023-06-14T12:57:23;29.60;46.30
51655;DHT22;37732;53.106;7.030;2023-06-14T12:59:48;29.40;45.60
51655;DHT22;37732;53.106;7.030;2023-06-14T13:02:16;29.00;45.60
51655;DHT22;37732;53.106;7.030;2023-06-14T13:04:43;29.00;46.30
51655;DHT22;37732;53.106;7.030;2023-06-14T13:07:09;29.00;46.40
51655;DHT22;37732;53.106;7.030;2023-06-14T13:09:36;28.80;45.90
51655;DHT22;37732;53.106;7.030;2023-06-14T13:12:03;28.90;46.40
51655;DHT22;37732;53.106;7.030;2023-06-14T13:14:29;28.70;46.10
51655;DHT22;37732;53.106;7.030;2023-06-14T13:16:54;28.50;46.00
51655;DHT22;37732;53.106;7.030;2023-06-14T13:19:21;28.10;46.00
51655;DHT22;37732;53.106;7.030;2023-06-14T13:21:47;27.90;46.60
51655;DHT22;37732;53.106;7.030;2023-06-14T13:24:13;28.10;47.00
51655;DHT22;37732;53.106;7.030;2023-06-14T13:26:38;28.10;46.60
51655;DHT22;37732;53.106;7.030;2023-06-14T13:29:04;28.00;46.30
51655;DHT22;37732;53.106;7.030;2023-06-14T13:31:30;27.70;46.20
51655;DHT22;37732;53.106;7.030;2023-06-14T13:33:55;27.60;46.40
51655;DHT22;37732;53.106;7.030;2023-06-14T13:36:21;27.70;46.30
51655;DHT22;37732;53.106;7.030;2023-06-14T13:38:47;27.90;46.60
51655;DHT22;37732;53.106;7.030;2023-06-14T13:41:12;28.20;46.70
51655;DHT22;37732;53.106;7.030;2023-06-14T13:43:38;28.30;46.50
51655;DHT22;37732;53.106;7.030;2023-06-14T13:46:04;28.50;46.30
51655;DHT22;37732;53.106;7.030;2023-06-14T13:48:29;28.70;45.30
51655;DHT22;37732;53.106;7.030;2023-06-14T13:50:55;29.00;45.30
51655;DHT22;37732;53.106;7.030;2023-06-14T13:53:22;29.20;45.00
51655;DHT22;37732;53.106;7.030;2023-06-14T13:55:48;29.30;44.80
51655;DHT22;37732;53.106;7.030;2023-06-14T13:58:13;29.60;45.40
51655;DHT22;37732;53.106;7.030;2023-06-14T14:00:40;29.60;45.60
51655;DHT22;37732;53.106;7.030;2023-06-14T14:03:06;29.30;45.70
51655;DHT22;37732;53.106;7.030;2023-06-14T14:05:32;29.20;46.00
51655;DHT22;37732;53.106;7.030;2023-06-14T14:07:58;29.00;46.00
51655;DHT22;37732;53.106;7.030;2023-06-14T14:10:24;28.90;46.20
51655;DHT22;37732;53.106;7.030;2023-06-14T14:12:51;28.90;46.40
51655;DHT22;37732;53.106;7.030;2023-06-14T14:15:17;28.70;45.30
51655;DHT22;37732;53.106;7.030;2023-06-14T14:17:42;28.50;45.20
51655;DHT22;37732;53.106;7.030;2023-06-14T14:20:09;28.60;45.90
51655;DHT22;37732;53.106;7.030;2023-06-14T14:22:35;28.80;46.00
51655;DHT22;37732;53.106;7.030;2023-06-14T14:25:00;29.10;45.80
51655;DHT22;37732;53.106;7.030;2023-06-14T14:27:26;29.30;45.70
51655;DHT22;37732;53.106;7.030;2023-06-14T14:29:51;29.70;45.40
51655;DHT22;37732;53.106;7.030;2023-06-14T14:32:17;29.90;44.90
51655;DHT22;37732;53.106;7.030;2023-06-14T14:34:43;29.70;44.60
51655;DHT22;37732;53.106;7.030;2023-06-14T14:37:08;29.40;44.00
51655;DHT22;37732;53.106;7.030;2023-06-14T14:39:34;29.00;43.90
51655;DHT22;37732;53.106;7.030;2023-06-14T14:42:00;28.90;44.40
51655;DHT22;37732;53.106;7.030;2023-06-14T14:44:26;29.00;44.60
51655;DHT22;37732;53.106;7.030;2023-06-14T14:46:51;29.20;44.70
51655;DHT22;37732;53.106;7.030;2023-06-14T14:49:17;29.50;44.40
51655;DHT22;37732;53.106;7.030;2023-06-14T14:51:42;29.60;44.20
51655;DHT22;37732;53.106;7.030;2023-06-14T14:54:08;29.70;44.50
51655;DHT22;37732;53.106;7.030;2023-06-14T14:56:34;29.40;44.60
51655;DHT22;37732;53.106;7.030;2023-06-14T14:59:00;29.40;45.10
51655;DHT22;37732;53.106;7.030;2023-06-14T15:01:26;29.30;44.80
51655;DHT22;37732;53.106;7.030;2023-06-14T15:03:52;29.50;45.00
51655;DHT22;37732;53.106;7.030;2023-06-14T15:06:17;29.50;44.60
51655;DHT22;37732;53.106;7.030;2023-06-14T15:08:43;29.70;44.80
51655;DHT22;37732;53.106;7.030;2023-06-14T15:11:09;29.80;44.70
51655;DHT22;37732;53.106;7.030;2023-06-14T15:13:35;29.90;44.30
51655;DHT22;37732;53.106;7.030;2023-06-14T15:16:01;30.10;44.00
51655;DHT22;37732;53.106;7.030;2023-06-14T15:18:26;30.40;44.50
51655;DHT22;37732;53.106;7.030;2023-06-14T15:20:52;30.50;44.20
51655;DHT22;37732;53.106;7.030;2023-06-14T15:23:18;30.10;43.60
51655;DHT22;37732;53.106;7.030;2023-06-14T15:25:45;29.80;43.50
51655;DHT22;37732;53.106;7.030;2023-06-14T15:28:12;29.50;43.50
51655;DHT22;37732;53.106;7.030;2023-06-14T15:30:38;29.10;43.90
51655;DHT22;37732;53.106;7.030;2023-06-14T15:33:04;29.00;44.50
51655;DHT22;37732;53.106;7.030;2023-06-14T15:35:30;29.00;44.50
51655;DHT22;37732;53.106;7.030;2023-06-14T15:37:56;29.20;43.90
51655;DHT22;37732;53.106;7.030;2023-06-14T15:40:21;29.50;43.80
51655;DHT22;37732;53.106;7.030;2023-06-14T15:42:47;29.40;42.80
51655;DHT22;37732;53.106;7.030;2023-06-14T15:45:12;29.50;42.40
51655;DHT22;37732;53.106;7.030;2023-06-14T15:47:39;29.40;42.70
51655;DHT22;37732;53.106;7.030;2023-06-14T15:50:05;28.90;42.30
51655;DHT22;37732;53.106;7.030;2023-06-14T15:52:33;28.70;42.60
51655;DHT22;37732;53.106;7.030;2023-06-14T15:54:59;28.70;43.60
51655;DHT22;37732;53.106;7.030;2023-06-14T15:57:25;28.70;43.50
51655;DHT22;37732;53.106;7.030;2023-06-14T15:59:51;28.80;43.70
51655;DHT22;37732;53.106;7.030;2023-06-14T16:02:17;28.90;44.30
51655;DHT22;37732;53.106;7.030;2023-06-14T16:04:43;29.10;44.50
51655;DHT22;37732;53.106;7.030;2023-06-14T16:07:08;29.30;44.70
51655;DHT22;37732;53.106;7.030;2023-06-14T16:09:34;29.20;44.10
51655;DHT22;37732;53.106;7.030;2023-06-14T16:12:00;29.10;43.40
51655;DHT22;37732;53.106;7.030;2023-06-14T16:14:27;28.90;43.20
51655;DHT22;37732;53.106;7.030;2023-06-14T16:16:52;28.70;43.10
51655;DHT22;37732;53.106;7.030;2023-06-14T16:19:18;28.70;43.60
51655;DHT22;37732;53.106;7.030;2023-06-14T16:21:44;28.50;43.50
51655;DHT22;37732;53.106;7.030;2023-06-14T16:24:09;28.30;44.10
51655;DHT22;37732;53.106;7.030;2023-06-14T16:26:35;28.10;44.30
51655;DHT22;37732;53.106;7.030;2023-06-14T16:29:01;27.90;45.00
51655;DHT22;37732;53.106;7.030;2023-06-14T16:31:26;27.70;46.10
51655;DHT22;37732;53.106;7.030;2023-06-14T16:33:53;27.60;46.60
51655;DHT22;37732;53.106;7.030;2023-06-14T16:36:22;27.60;47.00
51655;DHT22;37732;53.106;7.030;2023-06-14T16:38:48;27.50;47.40